sensor_id;sensor_type;location;lat;lon;timestamp;P1;durP1;ratioP1;P2;durP2;ratioP2
80163;SDS011;70071;55.130;61.268;2023-05-10T00:02:16;66.15;;;38.92;;
80163;SDS011;70071;55.130;61.268;2023-05-10T00:04:42;61.50;;;38.72;;
80163;SDS011;70071;55.130;61.268;2023-05-10T00:07:07;58.72;;;37.17;;
80163;SDS011;70071;55.130;61.268;2023-05-10T00:09:33;63.35;;;40.38;;
80163;SDS011;70071;55.130;61.268;2023-05-10T00:11:59;65.03;;;39.55;;
80163;SDS011;70071;55.130;61.268;2023-05-10T00:14:25;59.03;;;39.03;;
80163;SDS011;70071;55.130;61.268;2023-05-10T00:16:51;58.03;;;37.85;;
80163;SDS011;70071;55.130;61.268;2023-05-10T00:19:17;66.43;;;38.50;;
80163;SDS011;70071;55.130;61.268;2023-05-10T00:21:42;57.00;;;37.30;;
80163;SDS011;70071;55.130;61.268;2023-05-10T00:24:08;60.85;;;36.28;;
80163;SDS011;70071;55.130;61.268;2023-05-10T00:26:34;59.67;;;37.22;;
80163;SDS011;70071;55.130;61.268;2023-05-10T00:29:00;63.97;;;39.05;;
80163;SDS011;70071;55.130;61.268;2023-05-10T00:31:26;65.30;;;39.15;;
80163;SDS011;70071;55.130;61.268;2023-05-10T00:33:51;56.17;;;36.80;;
80163;SDS011;70071;55.130;61.268;2023-05-10T00:36:17;61.05;;;38.70;;
80163;SDS011;70071;55.130;61.268;2023-05-10T00:38:43;57.42;;;38.78;;
80163;SDS011;70071;55.130;61.268;2023-05-10T00:41:09;60.28;;;39.25;;
80163;SDS011;70071;55.130;61.268;2023-05-10T00:43:34;58.78;;;38.88;;
80163;SDS011;70071;55.130;61.268;2023-05-10T00:46:00;64.15;;;40.38;;
80163;SDS011;70071;55.130;61.268;2023-05-10T00:48:26;61.20;;;38.00;;
80163;SDS011;70071;55.130;61.268;2023-05-10T00:50:54;64.28;;;38.42;;
80163;SDS011;70071;55.130;61.268;2023-05-10T00:53:20;58.97;;;37.30;;
80163;SDS011;70071;55.130;61.268;2023-05-10T00:55:46;61.30;;;39.28;;
80163;SDS011;70071;55.130;61.268;2023-05-10T00:58:12;62.75;;;38.92;;
80163;SDS011;70071;55.130;61.268;2023-05-10T01:00:38;64.30;;;39.72;;
80163;SDS011;70071;55.130;61.268;2023-05-10T01:03:09;67.28;;;40.10;;
80163;SDS011;70071;55.130;61.268;2023-05-10T01:05:36;64.70;;;39.50;;
80163;SDS011;70071;55.130;61.268;2023-05-10T01:08:02;59.58;;;37.83;;
80163;SDS011;70071;55.130;61.268;2023-05-10T01:10:28;64.80;;;40.63;;
80163;SDS011;70071;55.130;61.268;2023-05-10T01:15:21;65.78;;;39.17;;
80163;SDS011;70071;55.130;61.268;2023-05-10T01:17:47;62.97;;;39.50;;
80163;SDS011;70071;55.130;61.268;2023-05-10T01:20:14;66.53;;;39.55;;
80163;SDS011;70071;55.130;61.268;2023-05-10T01:31:18;57.97;;;38.45;;
80163;SDS011;70071;55.130;61.268;2023-05-10T01:36:27;61.88;;;38.95;;
80163;SDS011;70071;55.130;61.268;2023-05-10T01:40:02;62.03;;;38.20;;
80163;SDS011;70071;55.130;61.268;2023-05-10T01:42:08;65.18;;;39.45;;
80163;SDS011;70071;55.130;61.268;2023-05-10T01:47:46;60.35;;;38.63;;
80163;SDS011;70071;55.130;61.268;2023-05-10T01:50:29;61.25;;;39.58;;
80163;SDS011;70071;55.130;61.268;2023-05-10T01:52:57;63.22;;;38.92;;
80163;SDS011;70071;55.130;61.268;2023-05-10T01:55:26;56.55;;;35.80;;
80163;SDS011;70071;55.130;61.268;2023-05-10T01:58:00;58.67;;;39.08;;
80163;SDS011;70071;55.130;61.268;2023-05-10T02:00:34;60.30;;;36.30;;
80163;SDS011;70071;55.130;61.268;2023-05-10T02:03:01;65.60;;;39.67;;
80163;SDS011;70071;55.130;61.268;2023-05-10T02:05:32;62.80;;;39.13;;
80163;SDS011;70071;55.130;61.268;2023-05-10T02:08:00;61.95;;;38.78;;
80163;SDS011;70071;55.130;61.268;2023-05-10T02:10:28;61.90;;;38.35;;
80163;SDS011;70071;55.130;61.268;2023-05-10T02:12:54;55.55;;;36.63;;
80163;SDS011;70071;55.130;61.268;2023-05-10T02:15:23;63.25;;;39.42;;
80163;SDS011;70071;55.130;61.268;2023-05-10T02:17:50;58.53;;;37.17;;
80163;SDS011;70071;55.130;61.268;2023-05-10T02:20:19;56.67;;;37.75;;
80163;SDS011;70071;55.130;61.268;2023-05-10T02:22:48;53.35;;;33.95;;
80163;SDS011;70071;55.130;61.268;2023-05-10T02:25:15;53.17;;;33.63;;
80163;SDS011;70071;55.130;61.268;2023-05-10T02:27:43;52.08;;;34.85;;
80163;SDS011;70071;55.130;61.268;2023-05-10T02:32:36;45.40;;;31.88;;
80163;SDS011;70071;55.130;61.268;2023-05-10T02:35:02;49.05;;;29.23;;
80163;SDS011;70071;55.130;61.268;2023-05-10T02:37:30;56.22;;;34.13;;
80163;SDS011;70071;55.130;61.268;2023-05-10T02:39:57;52.92;;;35.20;;
80163;SDS011;70071;55.130;61.268;2023-05-10T02:42:25;60.47;;;37.33;;
80163;SDS011;70071;55.130;61.268;2023-05-10T02:44:55;56.55;;;35.42;;
80163;SDS011;70071;55.130;61.268;2023-05-10T02:47:24;55.63;;;35.17;;
80163;SDS011;70071;55.130;61.268;2023-05-10T02:49:50;51.45;;;33.97;;
80163;SDS011;70071;55.130;61.268;2023-05-10T02:52:19;54.28;;;33.28;;
80163;SDS011;70071;55.130;61.268;2023-05-10T02:54:50;46.42;;;29.63;;
80163;SDS011;70071;55.130;61.268;2023-05-10T02:57:22;43.20;;;30.42;;
80163;SDS011;70071;55.130;61.268;2023-05-10T02:59:52;46.42;;;27.85;;
80163;SDS011;70071;55.130;61.268;2023-05-10T03:02:19;42.72;;;28.95;;
80163;SDS011;70071;55.130;61.268;2023-05-10T03:04:46;46.85;;;27.67;;
80163;SDS011;70071;55.130;61.268;2023-05-10T03:07:12;38.30;;;27.25;;
80163;SDS011;70071;55.130;61.268;2023-05-10T03:09:38;42.95;;;27.63;;
80163;SDS011;70071;55.130;61.268;2023-05-10T03:18:04;34.63;;;23.70;;
80163;SDS011;70071;55.130;61.268;2023-05-10T03:25:43;31.08;;;21.02;;
80163;SDS011;70071;55.130;61.268;2023-05-10T03:28:11;35.35;;;23.48;;
80163;SDS011;70071;55.130;61.268;2023-05-10T03:30:40;29.98;;;20.20;;
80163;SDS011;70071;55.130;61.268;2023-05-10T03:33:07;20.85;;;15.50;;
80163;SDS011;70071;55.130;61.268;2023-05-10T03:35:33;20.42;;;14.45;;
80163;SDS011;70071;55.130;61.268;2023-05-10T03:37:59;21.55;;;13.93;;
80163;SDS011;70071;55.130;61.268;2023-05-10T03:40:25;21.52;;;16.10;;
80163;SDS011;70071;55.130;61.268;2023-05-10T03:42:54;22.63;;;15.20;;
80163;SDS011;70071;55.130;61.268;2023-05-10T03:47:46;22.70;;;15.57;;
80163;SDS011;70071;55.130;61.268;2023-05-10T03:50:12;20.73;;;14.35;;
80163;SDS011;70071;55.130;61.268;2023-05-10T03:52:38;18.73;;;13.63;;
80163;SDS011;70071;55.130;61.268;2023-05-10T03:55:06;18.63;;;12.38;;
80163;SDS011;70071;55.130;61.268;2023-05-10T03:57:33;18.42;;;12.65;;
80163;SDS011;70071;55.130;61.268;2023-05-10T03:59:59;19.15;;;11.38;;
80163;SDS011;70071;55.130;61.268;2023-05-10T04:02:25;17.45;;;11.23;;
80163;SDS011;70071;55.130;61.268;2023-05-10T04:04:51;15.13;;;10.82;;
80163;SDS011;70071;55.130;61.268;2023-05-10T04:07:17;17.58;;;11.77;;
80163;SDS011;70071;55.130;61.268;2023-05-10T04:09:43;11.98;;;8.48;;
80163;SDS011;70071;55.130;61.268;2023-05-10T04:12:09;18.73;;;11.90;;
80163;SDS011;70071;55.130;61.268;2023-05-10T04:14:35;15.70;;;11.10;;
80163;SDS011;70071;55.130;61.268;2023-05-10T04:17:00;21.10;;;12.55;;
80163;SDS011;70071;55.130;61.268;2023-05-10T04:19:30;17.27;;;11.50;;
80163;SDS011;70071;55.130;61.268;2023-05-10T04:21:56;16.30;;;9.02;;
80163;SDS011;70071;55.130;61.268;2023-05-10T04:24:22;15.32;;;10.00;;
80163;SDS011;70071;55.130;61.268;2023-05-10T04:26:48;15.13;;;9.30;;
80163;SDS011;70071;55.130;61.268;2023-05-10T04:29:14;12.13;;;9.35;;
80163;SDS011;70071;55.130;61.268;2023-05-10T04:31:40;13.20;;;9.70;;
80163;SDS011;70071;55.130;61.268;2023-05-10T04:34:06;14.23;;;9.63;;
80163;SDS011;70071;55.130;61.268;2023-05-10T04:36:32;14.93;;;9.15;;
80163;SDS011;70071;55.130;61.268;2023-05-10T04:38:59;17.63;;;10.65;;
80163;SDS011;70071;55.130;61.268;2023-05-10T04:41:24;14.63;;;10.30;;
80163;SDS011;70071;55.130;61.268;2023-05-10T04:43:50;12.10;;;9.55;;
80163;SDS011;70071;55.130;61.268;2023-05-10T04:46:16;14.25;;;10.00;;
80163;SDS011;70071;55.130;61.268;2023-05-10T04:48:42;13.50;;;8.80;;
80163;SDS011;70071;55.130;61.268;2023-05-10T04:51:07;14.55;;;8.98;;
80163;SDS011;70071;55.130;61.268;2023-05-10T04:53:33;10.75;;;7.13;;
80163;SDS011;70071;55.130;61.268;2023-05-10T04:55:59;11.40;;;7.07;;
80163;SDS011;70071;55.130;61.268;2023-05-10T04:58:25;12.90;;;7.68;;
80163;SDS011;70071;55.130;61.268;2023-05-10T05:00:51;13.35;;;6.28;;
80163;SDS011;70071;55.130;61.268;2023-05-10T05:03:16;12.43;;;7.25;;
80163;SDS011;70071;55.130;61.268;2023-05-10T05:05:43;8.43;;;5.95;;
80163;SDS011;70071;55.130;61.268;2023-05-10T05:08:10;7.13;;;5.25;;
80163;SDS011;70071;55.130;61.268;2023-05-10T05:10:35;7.53;;;5.57;;
80163;SDS011;70071;55.130;61.268;2023-05-10T05:13:01;8.23;;;6.15;;
80163;SDS011;70071;55.130;61.268;2023-05-10T05:15:27;9.63;;;5.90;;
80163;SDS011;70071;55.130;61.268;2023-05-10T05:17:53;7.45;;;5.50;;
80163;SDS011;70071;55.130;61.268;2023-05-10T05:20:19;11.07;;;6.00;;
80163;SDS011;70071;55.130;61.268;2023-05-10T05:22:44;12.35;;;6.57;;
80163;SDS011;70071;55.130;61.268;2023-05-10T05:25:10;10.57;;;5.20;;
80163;SDS011;70071;55.130;61.268;2023-05-10T05:30:02;9.32;;;6.47;;
80163;SDS011;70071;55.130;61.268;2023-05-10T05:32:29;9.13;;;6.53;;
80163;SDS011;70071;55.130;61.268;2023-05-10T05:34:55;10.45;;;6.40;;
80163;SDS011;70071;55.130;61.268;2023-05-10T05:37:21;11.57;;;7.38;;
80163;SDS011;70071;55.130;61.268;2023-05-10T05:39:47;10.45;;;7.03;;
80163;SDS011;70071;55.130;61.268;2023-05-10T05:42:14;9.82;;;7.25;;
80163;SDS011;70071;55.130;61.268;2023-05-10T05:44:41;9.90;;;6.40;;
80163;SDS011;70071;55.130;61.268;2023-05-10T05:47:07;11.48;;;7.15;;
80163;SDS011;70071;55.130;61.268;2023-05-10T05:49:33;9.80;;;6.70;;
80163;SDS011;70071;55.130;61.268;2023-05-10T05:51:59;9.85;;;6.32;;
80163;SDS011;70071;55.130;61.268;2023-05-10T05:54:26;7.05;;;5.45;;
80163;SDS011;70071;55.130;61.268;2023-05-10T05:56:56;7.50;;;5.57;;
80163;SDS011;70071;55.130;61.268;2023-05-10T05:59:25;7.72;;;5.30;;
80163;SDS011;70071;55.130;61.268;2023-05-10T06:01:51;7.80;;;6.38;;
80163;SDS011;70071;55.130;61.268;2023-05-10T06:04:17;8.73;;;5.00;;
80163;SDS011;70071;55.130;61.268;2023-05-10T06:06:42;10.93;;;5.70;;
80163;SDS011;70071;55.130;61.268;2023-05-10T06:09:08;10.25;;;5.65;;
80163;SDS011;70071;55.130;61.268;2023-05-10T06:14:01;8.27;;;5.43;;
80163;SDS011;70071;55.130;61.268;2023-05-10T06:16:27;8.55;;;5.47;;
80163;SDS011;70071;55.130;61.268;2023-05-10T06:18:53;11.02;;;5.88;;
80163;SDS011;70071;55.130;61.268;2023-05-10T06:21:19;10.05;;;6.93;;
80163;SDS011;70071;55.130;61.268;2023-05-10T06:23:44;11.00;;;7.28;;
80163;SDS011;70071;55.130;61.268;2023-05-10T06:26:10;11.77;;;6.57;;
80163;SDS011;70071;55.130;61.268;2023-05-10T06:28:36;9.43;;;6.15;;
80163;SDS011;70071;55.130;61.268;2023-05-10T06:31:05;9.68;;;6.40;;
80163;SDS011;70071;55.130;61.268;2023-05-10T06:33:33;9.23;;;6.38;;
80163;SDS011;70071;55.130;61.268;2023-05-10T06:35:59;9.35;;;6.55;;
80163;SDS011;70071;55.130;61.268;2023-05-10T06:38:25;10.02;;;5.72;;
80163;SDS011;70071;55.130;61.268;2023-05-10T06:40:51;10.52;;;6.55;;
80163;SDS011;70071;55.130;61.268;2023-05-10T06:43:17;10.15;;;6.18;;
80163;SDS011;70071;55.130;61.268;2023-05-10T06:45:43;10.25;;;6.68;;
80163;SDS011;70071;55.130;61.268;2023-05-10T06:48:09;8.93;;;6.28;;
80163;SDS011;70071;55.130;61.268;2023-05-10T06:50:34;9.77;;;7.15;;
80163;SDS011;70071;55.130;61.268;2023-05-10T06:53:00;11.60;;;6.38;;
80163;SDS011;70071;55.130;61.268;2023-05-10T06:55:29;10.48;;;5.88;;
80163;SDS011;70071;55.130;61.268;2023-05-10T06:57:55;8.95;;;6.03;;
80163;SDS011;70071;55.130;61.268;2023-05-10T07:00:21;8.88;;;6.60;;
80163;SDS011;70071;55.130;61.268;2023-05-10T07:02:47;13.95;;;6.00;;
80163;SDS011;70071;55.130;61.268;2023-05-10T07:05:13;7.95;;;6.00;;
80163;SDS011;70071;55.130;61.268;2023-05-10T07:07:39;10.88;;;6.57;;
80163;SDS011;70071;55.130;61.268;2023-05-10T07:10:05;8.05;;;5.75;;
80163;SDS011;70071;55.130;61.268;2023-05-10T07:12:32;9.68;;;6.43;;
80163;SDS011;70071;55.130;61.268;2023-05-10T07:14:58;7.68;;;5.18;;
80163;SDS011;70071;55.130;61.268;2023-05-10T07:17:23;9.18;;;5.80;;
80163;SDS011;70071;55.130;61.268;2023-05-10T07:19:49;9.13;;;5.75;;
80163;SDS011;70071;55.130;61.268;2023-05-10T07:22:15;8.48;;;5.93;;
80163;SDS011;70071;55.130;61.268;2023-05-10T07:27:07;7.65;;;4.05;;
80163;SDS011;70071;55.130;61.268;2023-05-10T07:29:34;8.48;;;5.53;;
80163;SDS011;70071;55.130;61.268;2023-05-10T07:32:00;7.25;;;5.50;;
80163;SDS011;70071;55.130;61.268;2023-05-10T07:34:26;7.40;;;4.80;;
80163;SDS011;70071;55.130;61.268;2023-05-10T07:36:52;7.68;;;5.82;;
80163;SDS011;70071;55.130;61.268;2023-05-10T07:39:18;8.57;;;5.30;;
80163;SDS011;70071;55.130;61.268;2023-05-10T07:41:45;8.25;;;4.85;;
80163;SDS011;70071;55.130;61.268;2023-05-10T07:44:11;6.97;;;5.13;;
80163;SDS011;70071;55.130;61.268;2023-05-10T07:46:37;7.68;;;4.75;;
80163;SDS011;70071;55.130;61.268;2023-05-10T07:49:03;5.97;;;4.38;;
80163;SDS011;70071;55.130;61.268;2023-05-10T07:51:29;8.52;;;4.95;;
80163;SDS011;70071;55.130;61.268;2023-05-10T07:53:55;8.10;;;4.68;;
80163;SDS011;70071;55.130;61.268;2023-05-10T07:56:25;6.28;;;4.35;;
80163;SDS011;70071;55.130;61.268;2023-05-10T08:01:31;7.97;;;5.25;;
80163;SDS011;70071;55.130;61.268;2023-05-10T08:03:58;8.60;;;5.38;;
80163;SDS011;70071;55.130;61.268;2023-05-10T08:06:25;7.10;;;4.93;;
80163;SDS011;70071;55.130;61.268;2023-05-10T08:08:53;6.50;;;4.45;;
80163;SDS011;70071;55.130;61.268;2023-05-10T08:11:19;6.18;;;4.70;;
80163;SDS011;70071;55.130;61.268;2023-05-10T08:13:46;7.30;;;4.72;;
80163;SDS011;70071;55.130;61.268;2023-05-10T08:16:13;6.32;;;4.50;;
80163;SDS011;70071;55.130;61.268;2023-05-10T08:18:39;10.32;;;5.03;;
80163;SDS011;70071;55.130;61.268;2023-05-10T08:21:08;9.82;;;5.35;;
80163;SDS011;70071;55.130;61.268;2023-05-10T08:23:36;8.02;;;5.20;;
80163;SDS011;70071;55.130;61.268;2023-05-10T08:26:02;7.38;;;4.95;;
80163;SDS011;70071;55.130;61.268;2023-05-10T08:28:31;10.45;;;6.32;;
80163;SDS011;70071;55.130;61.268;2023-05-10T08:30:57;6.78;;;5.22;;
80163;SDS011;70071;55.130;61.268;2023-05-10T08:33:22;7.93;;;5.18;;
80163;SDS011;70071;55.130;61.268;2023-05-10T08:35:48;10.02;;;4.78;;
80163;SDS011;70071;55.130;61.268;2023-05-10T08:38:14;8.05;;;4.88;;
80163;SDS011;70071;55.130;61.268;2023-05-10T08:40:41;7.55;;;5.15;;
80163;SDS011;70071;55.130;61.268;2023-05-10T08:43:09;7.45;;;5.75;;
80163;SDS011;70071;55.130;61.268;2023-05-10T08:45:37;9.15;;;5.55;;
80163;SDS011;70071;55.130;61.268;2023-05-10T08:48:05;7.00;;;5.68;;
80163;SDS011;70071;55.130;61.268;2023-05-10T08:50:37;8.75;;;5.50;;
80163;SDS011;70071;55.130;61.268;2023-05-10T08:53:13;9.20;;;5.72;;
80163;SDS011;70071;55.130;61.268;2023-05-10T08:55:41;7.47;;;5.78;;
80163;SDS011;70071;55.130;61.268;2023-05-10T08:58:08;9.38;;;5.72;;
80163;SDS011;70071;55.130;61.268;2023-05-10T09:00:35;10.20;;;5.45;;
80163;SDS011;70071;55.130;61.268;2023-05-10T09:03:04;8.32;;;5.55;;
80163;SDS011;70071;55.130;61.268;2023-05-10T09:05:31;9.45;;;6.28;;
80163;SDS011;70071;55.130;61.268;2023-05-10T09:07:58;11.95;;;6.07;;
80163;SDS011;70071;55.130;61.268;2023-05-10T09:10:25;10.43;;;5.53;;
80163;SDS011;70071;55.130;61.268;2023-05-10T09:12:53;9.60;;;5.38;;
80163;SDS011;70071;55.130;61.268;2023-05-10T09:15:21;9.25;;;5.78;;
80163;SDS011;70071;55.130;61.268;2023-05-10T09:17:47;8.35;;;5.53;;
80163;SDS011;70071;55.130;61.268;2023-05-10T09:20:14;8.70;;;5.85;;
80163;SDS011;70071;55.130;61.268;2023-05-10T09:22:42;8.48;;;6.22;;
80163;SDS011;70071;55.130;61.268;2023-05-10T09:25:09;7.55;;;5.38;;
80163;SDS011;70071;55.130;61.268;2023-05-10T09:27:36;7.57;;;5.28;;
80163;SDS011;70071;55.130;61.268;2023-05-10T09:30:04;8.52;;;5.70;;
80163;SDS011;70071;55.130;61.268;2023-05-10T09:32:41;7.93;;;5.22;;
80163;SDS011;70071;55.130;61.268;2023-05-10T09:35:13;8.93;;;5.68;;
80163;SDS011;70071;55.130;61.268;2023-05-10T09:37:40;7.00;;;5.07;;
80163;SDS011;70071;55.130;61.268;2023-05-10T09:40:11;8.13;;;5.30;;
80163;SDS011;70071;55.130;61.268;2023-05-10T09:42:38;7.50;;;5.47;;
80163;SDS011;70071;55.130;61.268;2023-05-10T09:45:04;6.80;;;5.00;;
80163;SDS011;70071;55.130;61.268;2023-05-10T09:47:31;12.32;;;6.70;;
80163;SDS011;70071;55.130;61.268;2023-05-10T09:49:58;8.27;;;6.07;;
80163;SDS011;70071;55.130;61.268;2023-05-10T09:52:29;9.48;;;5.63;;
80163;SDS011;70071;55.130;61.268;2023-05-10T09:54:56;8.68;;;5.72;;
80163;SDS011;70071;55.130;61.268;2023-05-10T09:59:48;7.78;;;5.38;;
80163;SDS011;70071;55.130;61.268;2023-05-10T10:02:16;12.27;;;6.20;;
80163;SDS011;70071;55.130;61.268;2023-05-10T10:04:42;9.00;;;5.38;;
80163;SDS011;70071;55.130;61.268;2023-05-10T10:07:08;11.30;;;5.88;;
80163;SDS011;70071;55.130;61.268;2023-05-10T10:12:00;8.13;;;5.53;;
80163;SDS011;70071;55.130;61.268;2023-05-10T10:14:27;10.90;;;6.53;;
80163;SDS011;70071;55.130;61.268;2023-05-10T10:16:54;8.38;;;5.95;;
80163;SDS011;70071;55.130;61.268;2023-05-10T10:19:21;8.73;;;6.43;;
80163;SDS011;70071;55.130;61.268;2023-05-10T10:21:48;10.93;;;7.40;;
80163;SDS011;70071;55.130;61.268;2023-05-10T10:24:15;9.02;;;6.72;;
80163;SDS011;70071;55.130;61.268;2023-05-10T10:26:41;10.45;;;6.85;;
80163;SDS011;70071;55.130;61.268;2023-05-10T10:34:48;7.88;;;5.18;;
80163;SDS011;70071;55.130;61.268;2023-05-10T10:37:15;9.13;;;6.25;;
80163;SDS011;70071;55.130;61.268;2023-05-10T10:39:40;8.00;;;5.95;;
80163;SDS011;70071;55.130;61.268;2023-05-10T10:42:06;10.25;;;6.13;;
80163;SDS011;70071;55.130;61.268;2023-05-10T10:54:53;8.63;;;4.85;;
80163;SDS011;70071;55.130;61.268;2023-05-10T10:57:53;10.10;;;6.75;;
80163;SDS011;70071;55.130;61.268;2023-05-10T11:00:29;10.43;;;5.90;;
80163;SDS011;70071;55.130;61.268;2023-05-10T11:03:05;9.32;;;5.85;;
80163;SDS011;70071;55.130;61.268;2023-05-10T11:05:42;8.65;;;7.00;;
80163;SDS011;70071;55.130;61.268;2023-05-10T11:08:15;9.07;;;6.50;;
80163;SDS011;70071;55.130;61.268;2023-05-10T11:15:59;8.85;;;6.53;;
80163;SDS011;70071;55.130;61.268;2023-05-10T11:18:36;8.40;;;6.00;;
80163;SDS011;70071;55.130;61.268;2023-05-10T11:21:02;9.40;;;6.43;;
80163;SDS011;70071;55.130;61.268;2023-05-10T11:23:31;9.10;;;6.68;;
80163;SDS011;70071;55.130;61.268;2023-05-10T11:25:58;7.80;;;6.20;;
80163;SDS011;70071;55.130;61.268;2023-05-10T11:28:26;7.70;;;5.45;;
80163;SDS011;70071;55.130;61.268;2023-05-10T11:30:53;7.38;;;6.10;;
80163;SDS011;70071;55.130;61.268;2023-05-10T11:33:20;8.95;;;6.60;;
80163;SDS011;70071;55.130;61.268;2023-05-10T11:38:12;10.13;;;7.15;;
80163;SDS011;70071;55.130;61.268;2023-05-10T11:40:39;8.50;;;5.70;;
80163;SDS011;70071;55.130;61.268;2023-05-10T11:43:05;9.23;;;6.63;;
80163;SDS011;70071;55.130;61.268;2023-05-10T11:45:32;9.38;;;6.32;;
80163;SDS011;70071;55.130;61.268;2023-05-10T11:47:58;10.43;;;5.93;;
80163;SDS011;70071;55.130;61.268;2023-05-10T11:50:24;9.20;;;6.97;;
80163;SDS011;70071;55.130;61.268;2023-05-10T11:52:57;7.45;;;6.07;;
80163;SDS011;70071;55.130;61.268;2023-05-10T11:55:23;8.48;;;5.97;;
80163;SDS011;70071;55.130;61.268;2023-05-10T12:00:19;8.32;;;5.72;;
80163;SDS011;70071;55.130;61.268;2023-05-10T12:05:11;7.15;;;5.68;;
80163;SDS011;70071;55.130;61.268;2023-05-10T12:07:38;9.57;;;5.82;;
80163;SDS011;70071;55.130;61.268;2023-05-10T12:15:05;8.30;;;5.45;;
80163;SDS011;70071;55.130;61.268;2023-05-10T12:17:36;7.85;;;6.22;;
80163;SDS011;70071;55.130;61.268;2023-05-10T12:20:23;8.23;;;6.32;;
80163;SDS011;70071;55.130;61.268;2023-05-10T12:22:51;11.23;;;7.72;;
80163;SDS011;70071;55.130;61.268;2023-05-10T12:25:23;10.32;;;6.32;;
80163;SDS011;70071;55.130;61.268;2023-05-10T12:27:57;11.68;;;7.25;;
80163;SDS011;70071;55.130;61.268;2023-05-10T12:30:26;8.95;;;5.53;;
80163;SDS011;70071;55.130;61.268;2023-05-10T12:33:07;7.90;;;6.38;;
80163;SDS011;70071;55.130;61.268;2023-05-10T12:35:48;14.27;;;7.63;;
80163;SDS011;70071;55.130;61.268;2023-05-10T12:38:25;9.20;;;7.47;;
80163;SDS011;70071;55.130;61.268;2023-05-10T12:40:59;8.18;;;6.07;;
80163;SDS011;70071;55.130;61.268;2023-05-10T12:43:26;9.32;;;6.70;;
80163;SDS011;70071;55.130;61.268;2023-05-10T12:45:52;9.25;;;6.78;;
80163;SDS011;70071;55.130;61.268;2023-05-10T12:48:18;8.40;;;6.38;;
80163;SDS011;70071;55.130;61.268;2023-05-10T12:50:45;9.13;;;6.78;;
80163;SDS011;70071;55.130;61.268;2023-05-10T12:53:10;8.23;;;6.80;;
80163;SDS011;70071;55.130;61.268;2023-05-10T12:55:39;9.32;;;6.70;;
80163;SDS011;70071;55.130;61.268;2023-05-10T12:58:05;9.18;;;6.75;;
80163;SDS011;70071;55.130;61.268;2023-05-10T13:00:30;7.43;;;6.57;;
80163;SDS011;70071;55.130;61.268;2023-05-10T13:02:56;7.65;;;6.55;;
80163;SDS011;70071;55.130;61.268;2023-05-10T13:05:22;10.25;;;6.47;;
80163;SDS011;70071;55.130;61.268;2023-05-10T13:07:48;9.85;;;7.20;;
80163;SDS011;70071;55.130;61.268;2023-05-10T13:10:13;8.55;;;6.07;;
80163;SDS011;70071;55.130;61.268;2023-05-10T13:12:39;9.57;;;6.72;;
80163;SDS011;70071;55.130;61.268;2023-05-10T13:15:05;8.50;;;6.47;;
80163;SDS011;70071;55.130;61.268;2023-05-10T13:17:32;7.47;;;6.35;;
80163;SDS011;70071;55.130;61.268;2023-05-10T13:22:44;9.10;;;7.63;;
80163;SDS011;70071;55.130;61.268;2023-05-10T13:25:11;7.65;;;6.85;;
80163;SDS011;70071;55.130;61.268;2023-05-10T13:27:40;9.00;;;6.85;;
80163;SDS011;70071;55.130;61.268;2023-05-10T13:30:06;7.28;;;6.57;;
80163;SDS011;70071;55.130;61.268;2023-05-10T13:32:33;8.95;;;6.72;;
80163;SDS011;70071;55.130;61.268;2023-05-10T13:34:59;7.20;;;6.22;;
80163;SDS011;70071;55.130;61.268;2023-05-10T13:37:25;9.50;;;7.30;;
80163;SDS011;70071;55.130;61.268;2023-05-10T13:39:50;10.13;;;7.25;;
80163;SDS011;70071;55.130;61.268;2023-05-10T13:42:17;7.95;;;6.95;;
80163;SDS011;70071;55.130;61.268;2023-05-10T13:44:43;8.10;;;7.18;;
80163;SDS011;70071;55.130;61.268;2023-05-10T13:47:08;9.20;;;6.53;;
80163;SDS011;70071;55.130;61.268;2023-05-10T13:49:35;8.45;;;6.18;;
80163;SDS011;70071;55.130;61.268;2023-05-10T13:52:01;7.63;;;6.22;;
80163;SDS011;70071;55.130;61.268;2023-05-10T13:54:32;9.43;;;5.47;;
80163;SDS011;70071;55.130;61.268;2023-05-10T13:57:01;6.78;;;5.32;;
80163;SDS011;70071;55.130;61.268;2023-05-10T13:59:28;6.63;;;5.13;;
80163;SDS011;70071;55.130;61.268;2023-05-10T14:01:54;8.68;;;5.90;;
80163;SDS011;70071;55.130;61.268;2023-05-10T14:04:20;12.25;;;7.00;;
80163;SDS011;70071;55.130;61.268;2023-05-10T14:06:46;9.50;;;5.82;;
80163;SDS011;70071;55.130;61.268;2023-05-10T14:09:12;7.63;;;5.72;;
80163;SDS011;70071;55.130;61.268;2023-05-10T14:11:38;11.15;;;6.47;;
80163;SDS011;70071;55.130;61.268;2023-05-10T14:14:08;9.82;;;6.60;;
80163;SDS011;70071;55.130;61.268;2023-05-10T14:16:34;7.82;;;5.30;;
80163;SDS011;70071;55.130;61.268;2023-05-10T14:19:00;10.30;;;6.18;;
80163;SDS011;70071;55.130;61.268;2023-05-10T14:21:26;8.35;;;6.00;;
80163;SDS011;70071;55.130;61.268;2023-05-10T14:23:54;8.00;;;6.32;;
80163;SDS011;70071;55.130;61.268;2023-05-10T14:26:20;8.55;;;5.93;;
80163;SDS011;70071;55.130;61.268;2023-05-10T14:28:46;8.57;;;6.22;;
80163;SDS011;70071;55.130;61.268;2023-05-10T14:31:12;7.07;;;6.00;;
80163;SDS011;70071;55.130;61.268;2023-05-10T14:33:39;9.18;;;6.80;;
80163;SDS011;70071;55.130;61.268;2023-05-10T14:36:06;10.10;;;6.53;;
80163;SDS011;70071;55.130;61.268;2023-05-10T14:38:32;6.82;;;5.68;;
80163;SDS011;70071;55.130;61.268;2023-05-10T14:40:58;9.10;;;6.40;;
80163;SDS011;70071;55.130;61.268;2023-05-10T14:43:24;6.82;;;5.88;;
80163;SDS011;70071;55.130;61.268;2023-05-10T14:45:50;8.27;;;5.80;;
80163;SDS011;70071;55.130;61.268;2023-05-10T14:48:15;8.98;;;6.70;;
80163;SDS011;70071;55.130;61.268;2023-05-10T14:50:43;9.45;;;6.30;;
80163;SDS011;70071;55.130;61.268;2023-05-10T14:53:09;8.73;;;6.55;;
80163;SDS011;70071;55.130;61.268;2023-05-10T14:55:35;10.25;;;6.32;;
80163;SDS011;70071;55.130;61.268;2023-05-10T14:58:04;7.85;;;5.43;;
80163;SDS011;70071;55.130;61.268;2023-05-10T15:00:30;9.23;;;6.63;;
80163;SDS011;70071;55.130;61.268;2023-05-10T15:02:56;8.35;;;6.72;;
80163;SDS011;70071;55.130;61.268;2023-05-10T15:05:22;9.35;;;6.72;;
80163;SDS011;70071;55.130;61.268;2023-05-10T15:07:48;8.95;;;5.38;;
80163;SDS011;70071;55.130;61.268;2023-05-10T15:10:14;8.63;;;6.55;;
80163;SDS011;70071;55.130;61.268;2023-05-10T15:12:40;8.57;;;6.28;;
80163;SDS011;70071;55.130;61.268;2023-05-10T15:15:06;8.85;;;6.07;;
80163;SDS011;70071;55.130;61.268;2023-05-10T15:17:32;7.82;;;5.75;;
80163;SDS011;70071;55.130;61.268;2023-05-10T15:19:59;9.00;;;6.15;;
80163;SDS011;70071;55.130;61.268;2023-05-10T15:22:29;8.75;;;6.03;;
80163;SDS011;70071;55.130;61.268;2023-05-10T15:24:57;9.55;;;6.63;;
80163;SDS011;70071;55.130;61.268;2023-05-10T15:27:24;16.35;;;12.20;;
80163;SDS011;70071;55.130;61.268;2023-05-10T15:29:50;11.30;;;7.95;;
80163;SDS011;70071;55.130;61.268;2023-05-10T15:32:17;12.73;;;7.95;;
80163;SDS011;70071;55.130;61.268;2023-05-10T15:34:43;10.45;;;7.30;;
80163;SDS011;70071;55.130;61.268;2023-05-10T15:37:08;12.82;;;5.95;;
80163;SDS011;70071;55.130;61.268;2023-05-10T15:39:35;9.73;;;6.03;;
80163;SDS011;70071;55.130;61.268;2023-05-10T15:42:01;10.65;;;6.10;;
80163;SDS011;70071;55.130;61.268;2023-05-10T15:44:28;8.57;;;5.90;;
80163;SDS011;70071;55.130;61.268;2023-05-10T15:46:54;7.88;;;6.35;;
80163;SDS011;70071;55.130;61.268;2023-05-10T15:49:20;12.63;;;6.25;;
80163;SDS011;70071;55.130;61.268;2023-05-10T15:51:45;8.80;;;6.40;;